Time;durP1;ratioP1;P1;durP2;ratioP2;P2;SDS_P1;SDS_P2;PMS_P1;PMS_P2;Temp;Humidity;BMP_temperature;BMP_pressure;BME280_temperature;BME280_humidity;BME280_pressure;Samples;Min_cycle;Max_cycle;Signal;HPM_P1;HPM_P2
2022/03/01 00:00:21;;;;;;;20.42;5.85;;;3.00;40.70;;;;;;5054197;28;20075;-72
2022/03/01 00:02:47;;;;;;;12.88;5.70;;;3.00;41.00;;;;;;5054344;28;20013;-74
2022/03/01 00:05:13;;;;;;;13.32;6.07;;;3.00;41.00;;;;;;5054221;28;20035;-75
2022/03/01 00:07:39;;;;;;;13.05;5.82;;;3.00;41.00;;;;;;5054219;28;20029;-72
2022/03/01 00:10:05;;;;;;;11.23;5.30;;;3.00;41.00;;;;;;5054136;28;20074;-74
2022/03/01 00:12:31;;;;;;;11.60;5.75;;;3.10;41.10;;;;;;5054120;28;20091;-75
2022/03/01 00:14:57;;;;;;;12.82;6.35;;;3.10;41.00;;;;;;5054022;28;20425;-74
2022/03/01 00:17:23;;;;;;;10.18;5.63;;;3.10;41.10;;;;;;5053979;28;20394;-76
2022/03/01 00:19:49;;;;;;;12.40;5.43;;;3.10;41.10;;;;;;5053392;28;20040;-74
2022/03/01 00:22:15;;;;;;;14.15;5.88;;;3.10;41.50;;;;;;5053854;28;20024;-75
2022/03/01 00:24:41;;;;;;;8.90;5.35;;;3.10;41.30;;;;;;5053927;28;20517;-77
2022/03/01 00:27:07;;;;;;;13.68;6.32;;;3.00;41.20;;;;;;5053814;28;20013;-74
2022/03/01 00:29:33;;;;;;;14.23;6.05;;;3.10;41.20;;;;;;5053748;28;20040;-74
2022/03/01 00:31:58;;;;;;;17.65;6.72;;;3.10;41.20;;;;;;5053542;28;20052;-75
2022/03/01 00:34:24;;;;;;;14.65;6.15;;;3.10;41.20;;;;;;5052434;28;20115;-74
2022/03/01 00:36:50;;;;;;;13.05;5.97;;;3.10;41.20;;;;;;5053662;28;20021;-76
2022/03/01 00:39:16;;;;;;;15.07;6.63;;;3.10;41.20;;;;;;5053553;28;20376;-73
2022/03/01 00:41:42;;;;;;;11.60;6.20;;;3.00;41.20;;;;;;5052242;28;20033;-74
2022/03/01 00:44:07;;;;;;;11.27;5.43;;;3.00;41.10;;;;;;5053467;28;20028;-73
2022/03/01 00:46:34;;;;;;;14.52;6.75;;;3.00;41.10;;;;;;5052406;28;20445;-75
2022/03/01 00:49:00;;;;;;;14.30;5.93;;;3.00;41.30;;;;;;5053368;28;20104;-74
2022/03/01 00:51:27;;;;;;;13.70;5.97;;;2.90;41.40;;;;;;5053341;28;20028;-75
2022/03/01 00:53:53;;;;;;;12.32;5.88;;;2.90;41.50;;;;;;5053359;28;20029;-76
2022/03/01 00:56:19;;;;;;;15.10;6.68;;;2.90;41.60;;;;;;5051923;28;20505;-75
2022/03/01 00:58:45;;;;;;;14.63;6.03;;;2.90;41.70;;;;;;5053028;28;20068;-74
2022/03/01 01:01:11;;;;;;;16.33;7.35;;;2.90;41.70;;;;;;5053042;28;20025;-74
2022/03/01 01:03:37;;;;;;;11.95;6.18;;;2.90;41.80;;;;;;5051884;28;20032;-73
2022/03/01 01:06:04;;;;;;;15.68;6.72;;;2.80;41.70;;;;;;5053071;28;20383;-74
2022/03/01 01:08:30;;;;;;;12.45;6.20;;;2.80;41.90;;;;;;5051763;28;20024;-75
2022/03/01 01:10:56;;;;;;;14.77;6.28;;;2.80;42.00;;;;;;5053026;28;20486;-75
2022/03/01 01:13:22;;;;;;;13.90;6.57;;;2.70;42.00;;;;;;5052918;28;20028;-71
2022/03/01 01:15:48;;;;;;;14.15;5.97;;;2.80;42.10;;;;;;5052824;28;20017;-74
2022/03/01 01:18:14;;;;;;;15.68;6.50;;;2.70;42.10;;;;;;5052866;28;20021;-73
2022/03/01 01:20:40;;;;;;;14.30;7.13;;;2.70;42.10;;;;;;5052772;28;20036;-73
2022/03/01 01:23:06;;;;;;;11.15;5.40;;;2.70;42.20;;;;;;5035118;28;20025;-76
2022/03/01 01:25:32;;;;;;;15.85;6.22;;;2.70;42.20;;;;;;5052785;28;20024;-73
2022/03/01 01:28:00;;;;;;;12.07;6.15;;;2.70;42.30;;;;;;5051478;28;20036;-74
2022/03/01 01:30:31;;;;;;;13.20;6.30;;;2.60;42.40;;;;;;5050905;28;20017;-75
2022/03/01 01:32:57;;;;;;;15.45;6.65;;;2.60;42.60;;;;;;5052340;28;20524;-72
2022/03/01 01:35:25;;;;;;;11.65;5.97;;;2.60;42.70;;;;;;5052726;28;20067;-73
2022/03/01 01:37:52;;;;;;;15.00;6.53;;;2.60;42.70;;;;;;5052605;28;20059;-73
2022/03/01 01:40:24;;;;;;;18.20;7.18;;;2.50;42.80;;;;;;5052536;28;20017;-75
2022/03/01 01:42:51;;;;;;;13.70;6.28;;;2.50;43.00;;;;;;5051382;28;20028;-75
2022/03/01 01:45:18;;;;;;;12.15;5.50;;;2.50;43.00;;;;;;5052624;28;20031;-77
2022/03/01 01:47:44;;;;;;;12.23;5.93;;;2.50;43.00;;;;;;5052531;28;20096;-73
2022/03/01 01:50:10;;;;;;;12.52;6.03;;;2.50;43.00;;;;;;5052528;28;20542;-72
2022/03/01 01:52:36;;;;;;;10.65;5.50;;;2.50;42.90;;;;;;5052477;28;20069;-72
2022/03/01 01:55:03;;;;;;;14.52;7.32;;;2.50;42.90;;;;;;5052458;28;20022;-74
2022/03/01 01:57:29;;;;;;;16.98;5.85;;;2.50;43.00;;;;;;5052148;28;20068;-77
2022/03/01 01:59:56;;;;;;;19.20;6.75;;;2.50;43.60;;;;;;5052423;28;20477;-73
2022/03/01 02:02:25;;;;;;;13.00;6.07;;;2.60;43.10;;;;;;5050971;28;20032;-76
2022/03/01 02:04:50;;;;;;;16.08;7.13;;;2.60;43.20;;;;;;5052280;28;20072;-74
2022/03/01 02:07:17;;;;;;;13.45;6.10;;;2.60;43.30;;;;;;5052231;28;20478;-74
2022/03/01 02:09:43;;;;;;;19.20;6.25;;;2.60;43.50;;;;;;5052194;28;20013;-74
2022/03/01 02:12:09;;;;;;;13.38;6.32;;;2.60;43.50;;;;;;5052251;28;20168;-74
2022/03/01 02:14:37;;;;;;;12.13;5.40;;;2.60;43.50;;;;;;5050845;28;20451;-76
2022/03/01 02:17:05;;;;;;;13.00;6.10;;;2.60;43.50;;;;;;5052195;28;20049;-74
2022/03/01 02:19:32;;;;;;;13.43;5.82;;;2.60;43.40;;;;;;5052117;28;20493;-76
2022/03/01 02:21:58;;;;;;;15.52;6.00;;;2.60;43.40;;;;;;5051971;28;20062;-75
2022/03/01 02:24:26;;;;;;;15.63;7.00;;;2.60;43.50;;;;;;5050805;28;20025;-74
2022/03/01 02:27:00;;;;;;;15.88;6.30;;;2.50;43.60;;;;;;5050786;28;20083;-74
2022/03/01 02:29:26;;;;;;;;;;;2.50;43.80;;;;;;5051252;28;20032;-72
2022/03/01 02:31:54;;;;;;;10.60;5.45;;;2.50;43.20;;;;;;5051966;28;20374;-75
2022/03/01 02:34:20;;;;;;;14.77;7.18;;;2.50;43.60;;;;;;5052022;28;20032;-74
2022/03/01 02:36:46;;;;;;;12.90;5.78;;;2.50;43.80;;;;;;5051988;28;20053;-73
2022/03/01 02:39:13;;;;;;;16.88;6.65;;;2.50;44.10;;;;;;5051967;28;20446;-73
2022/03/01 02:41:40;;;;;;;11.93;5.97;;;2.50;44.20;;;;;;5051927;28;20470;-72
2022/03/01 02:44:07;;;;;;;13.75;5.90;;;2.60;44.20;;;;;;5055386;28;20053;-74
2022/03/01 02:46:33;;;;;;;11.35;5.35;;;2.60;44.20;;;;;;5055605;28;20164;-73
2022/03/01 02:48:59;;;;;;;12.60;5.70;;;2.60;44.10;;;;;;5055548;28;20047;-74
2022/03/01 02:51:24;;;;;;;16.80;5.88;;;2.60;43.90;;;;;;5054315;28;20021;-74
2022/03/01 02:53:50;;;;;;;12.02;5.40;;;2.60;43.80;;;;;;5055500;28;20490;-73
2022/03/01 02:56:16;;;;;;;11.88;5.47;;;2.60;43.80;;;;;;5054156;28;20029;-74
2022/03/01 02:58:41;;;;;;;11.70;5.30;;;2.60;43.70;;;;;;5055217;28;20045;-74
2022/03/01 03:01:08;;;;;;;12.35;5.90;;;2.50;43.70;;;;;;5055250;28;20029;-74
2022/03/01 03:03:34;;;;;;;13.60;5.63;;;2.50;43.70;;;;;;5055294;28;20378;-73
2022/03/01 03:06:00;;;;;;;12.23;5.53;;;2.50;43.60;;;;;;5055199;28;20009;-73
2022/03/01 03:08:26;;;;;;;10.18;5.45;;;2.40;43.50;;;;;;5055151;28;20027;-75
2022/03/01 03:10:52;;;;;;;15.00;5.05;;;2.40;43.50;;;;;;5055186;28;20017;-75
2022/03/01 03:13:19;;;;;;;17.65;5.40;;;2.40;43.50;;;;;;5055039;28;20029;-72
2022/03/01 03:15:46;;;;;;;10.23;5.28;;;2.30;43.50;;;;;;5055151;28;20517;-74
2022/03/01 03:18:11;;;;;;;12.35;5.65;;;2.30;44.20;;;;;;5055053;28;20021;-76
2022/03/01 03:20:37;;;;;;;14.13;5.43;;;2.30;43.70;;;;;;5053699;28;20029;-76
2022/03/01 03:23:03;;;;;;;12.57;5.40;;;2.20;43.80;;;;;;5055001;28;20479;-76
2022/03/01 03:25:29;;;;;;;18.60;5.25;;;2.20;43.90;;;;;;5054885;28;20028;-72
2022/03/01 03:27:54;;;;;;;12.82;5.53;;;2.20;43.90;;;;;;5053519;28;20027;-75
2022/03/01 03:30:20;;;;;;;10.40;5.57;;;2.10;44.10;;;;;;5054790;28;20488;-73
2022/03/01 03:32:46;;;;;;;11.15;6.03;;;2.10;44.10;;;;;;5054653;28;20022;-74
2022/03/01 03:35:11;;;;;;;13.70;5.30;;;2.10;44.30;;;;;;5054754;28;20056;-76
2022/03/01 03:37:37;;;;;;;12.38;5.68;;;2.10;44.40;;;;;;5054649;28;20070;-74
2022/03/01 03:40:04;;;;;;;15.13;5.97;;;2.10;44.40;;;;;;5054647;28;20037;-76
2022/03/01 03:42:30;;;;;;;8.60;4.35;;;2.00;44.40;;;;;;5054537;28;20025;-74
2022/03/01 03:44:55;;;;;;;11.85;5.80;;;2.00;44.40;;;;;;5053192;28;20082;-74
2022/03/01 03:47:21;;;;;;;12.73;4.88;;;2.00;44.50;;;;;;5053218;28;20025;-75
2022/03/01 03:49:48;;;;;;;11.27;5.78;;;2.00;44.80;;;;;;5054413;28;20530;-75
2022/03/01 03:52:13;;;;;;;13.57;5.97;;;1.90;45.20;;;;;;5054337;28;20056;-76
2022/03/01 03:54:39;;;;;;;13.15;5.57;;;1.90;45.30;;;;;;5052106;28;20068;-74
2022/03/01 03:57:08;;;;;;;13.15;5.93;;;1.90;45.20;;;;;;5052941;28;20045;-73
2022/03/01 03:59:35;;;;;;;13.02;6.32;;;1.90;45.10;;;;;;5054225;28;20021;-72
2022/03/01 04:02:02;;;;;;;11.65;5.25;;;1.90;45.20;;;;;;5052847;28;20032;-72
2022/03/01 04:04:28;;;;;;;12.93;6.05;;;1.90;45.20;;;;;;5054499;28;20033;-77
2022/03/01 04:06:53;;;;;;;12.07;7.50;;;1.90;45.40;;;;;;5054041;28;20016;-75
2022/03/01 04:09:19;;;;;;;13.20;6.00;;;1.90;45.80;;;;;;5054055;28;20053;-72
2022/03/01 04:11:45;;;;;;;13.50;5.65;;;1.90;45.90;;;;;;5053922;28;20398;-73
2022/03/01 04:14:11;;;;;;;10.05;5.75;;;1.90;46.20;;;;;;5053998;28;20040;-74
2022/03/01 04:16:38;;;;;;;11.60;5.45;;;1.90;46.40;;;;;;5053955;28;20025;-74
2022/03/01 04:19:04;;;;;;;12.88;5.70;;;1.90;46.30;;;;;;5053828;28;20032;-74
2022/03/01 04:21:29;;;;;;;15.02;6.28;;;1.90;46.20;;;;;;5053792;28;20036;-76
2022/03/01 04:23:55;;;;;;;14.35;6.65;;;1.90;46.40;;;;;;5053717;28;20017;-71
2022/03/01 04:26:23;;;;;;;16.52;6.28;;;1.90;46.60;;;;;;5053716;28;20090;-72
2022/03/01 04:28:49;;;;;;;15.93;6.90;;;1.90;46.70;;;;;;5052400;28;20514;-73
2022/03/01 04:31:15;;;;;;;14.93;6.53;;;2.00;46.80;;;;;;5053585;28;20049;-73
2022/03/01 04:33:40;;;;;;;14.73;6.88;;;2.00;46.80;;;;;;5053552;28;20048;-73
2022/03/01 04:36:07;;;;;;;11.95;5.28;;;2.00;46.80;;;;;;5053572;28;20049;-75
2022/03/01 04:38:33;;;;;;;15.52;6.43;;;2.00;46.80;;;;;;5053520;28;20116;-73
2022/03/01 04:40:59;;;;;;;13.68;6.00;;;2.00;46.80;;;;;;5053250;28;20107;-72
2022/03/01 04:43:25;;;;;;;14.05;6.28;;;2.00;46.80;;;;;;5053385;28;20028;-72
2022/03/01 04:45:50;;;;;;;8.55;4.65;;;2.00;46.80;;;;;;5052044;28;20021;-74
2022/03/01 04:48:16;;;;;;;14.77;5.93;;;2.00;46.80;;;;;;5053284;28;20151;-74
2022/03/01 04:50:42;;;;;;;17.38;6.18;;;2.00;46.80;;;;;;5051982;28;20078;-75
2022/03/01 04:53:08;;;;;;;21.25;9.43;;;2.00;46.80;;;;;;5053286;28;20021;-72
2022/03/01 04:55:34;;;;;;;18.20;8.70;;;1.90;46.80;;;;;;5053169;28;20025;-75
2022/03/01 04:58:00;;;;;;;29.92;12.38;;;1.90;46.80;;;;;;5052370;28;20052;-75
2022/03/01 05:00:26;;;;;;;22.58;9.77;;;1.90;46.90;;;;;;5053024;28;20120;-72
2022/03/01 05:02:52;;;;;;;16.75;6.70;;;1.90;47.00;;;;;;5053037;28;20021;-72
2022/03/01 05:05:18;;;;;;;13.18;6.93;;;1.90;47.10;;;;;;5052812;28;20332;-72
2022/03/01 05:07:46;;;;;;;19.77;7.07;;;1.90;47.20;;;;;;5053090;28;20487;-75
2022/03/01 05:10:13;;;;;;;16.40;8.07;;;1.90;47.20;;;;;;5051436;28;20028;-75
2022/03/01 05:12:42;;;;;;;15.85;6.68;;;1.90;47.30;;;;;;5052890;28;20083;-75
2022/03/01 05:15:08;;;;;;;14.60;7.25;;;1.90;47.50;;;;;;5051613;28;20029;-72
2022/03/01 05:17:35;;;;;;;15.40;8.20;;;1.80;47.60;;;;;;5051570;28;20056;-72
2022/03/01 05:20:01;;;;;;;13.23;7.50;;;1.80;47.70;;;;;;5052797;28;20031;-73
2022/03/01 05:22:27;;;;;;;16.25;7.38;;;1.80;47.80;;;;;;5054450;28;20032;-73
2022/03/01 05:24:53;;;;;;;20.50;7.25;;;1.80;47.90;;;;;;5056483;28;20462;-74
2022/03/01 05:27:18;;;;;;;15.80;7.35;;;1.80;47.90;;;;;;5057591;28;20025;-74
2022/03/01 05:29:44;;;;;;;10.73;6.18;;;1.80;48.00;;;;;;5055733;28;20033;-71
2022/03/01 05:32:11;;;;;;;12.70;6.30;;;1.70;48.00;;;;;;5058398;28;20036;-73
2022/03/01 05:34:37;;;;;;;9.88;5.50;;;1.70;47.90;;;;;;5056570;28;20385;-76
2022/03/01 05:37:03;;;;;;;12.95;6.38;;;1.70;47.70;;;;;;5051464;28;20031;-73
2022/03/01 05:39:29;;;;;;;13.00;5.80;;;1.70;47.60;;;;;;5052650;28;20025;-75
2022/03/01 05:41:55;;;;;;;20.52;7.63;;;1.70;47.60;;;;;;5052461;28;20386;-73
2022/03/01 05:44:21;;;;;;;17.95;8.32;;;1.70;47.60;;;;;;5053155;28;20025;-73
2022/03/01 05:46:47;;;;;;;21.52;7.45;;;1.70;47.70;;;;;;5052694;28;20021;-74
2022/03/01 05:49:16;;;;;;;18.05;7.57;;;1.70;47.60;;;;;;5052746;28;20039;-72
2022/03/01 05:51:41;;;;;;;29.30;12.10;;;1.70;47.60;;;;;;5052580;28;20029;-71
2022/03/01 05:54:07;;;;;;;25.33;11.15;;;1.70;47.50;;;;;;5052546;28;20028;-74
2022/03/01 05:56:33;;;;;;;19.88;9.75;;;1.70;47.80;;;;;;5052008;28;20025;-73
2022/03/01 05:58:59;;;;;;;26.20;10.93;;;1.70;47.90;;;;;;5052319;28;20102;-75
2022/03/01 06:01:25;;;;;;;41.25;16.88;;;1.70;48.00;;;;;;5052198;28;20470;-75
2022/03/01 06:03:50;;;;;;;26.67;12.52;;;1.70;48.10;;;;;;5052368;28;20028;-73
2022/03/01 06:06:16;;;;;;;24.58;10.70;;;1.70;48.10;;;;;;5052027;28;20013;-73
2022/03/01 06:08:42;;;;;;;18.75;8.68;;;1.70;47.90;;;;;;5052249;28;20404;-75
2022/03/01 06:11:08;;;;;;;21.13;7.00;;;1.70;47.80;;;;;;5052209;28;20584;-73
2022/03/01 06:13:33;;;;;;;14.93;7.22;;;1.80;47.70;;;;;;5052242;28;20025;-72
2022/03/01 06:16:03;;;;;;;18.40;7.28;;;1.80;47.70;;;;;;5052248;28;20028;-76
2022/03/01 06:18:29;;;;;;;17.35;7.13;;;1.80;47.80;;;;;;5055007;28;20374;-77
2022/03/01 06:20:56;;;;;;;17.60;6.75;;;1.90;47.90;;;;;;5055907;28;20032;-75
2022/03/01 06:23:22;;;;;;;11.88;6.68;;;1.90;47.90;;;;;;5055987;28;20017;-74
2022/03/01 06:25:48;;;;;;;11.02;5.80;;;2.00;48.20;;;;;;5056008;28;20020;-73
2022/03/01 06:28:13;;;;;;;11.35;5.80;;;2.10;48.20;;;;;;5056009;28;20067;-72
2022/03/01 06:30:39;;;;;;;10.80;5.43;;;2.10;48.00;;;;;;5056065;28;20014;-73
2022/03/01 06:33:05;;;;;;;11.85;6.97;;;2.20;47.90;;;;;;5055786;28;20017;-74
2022/03/01 06:35:31;;;;;;;14.35;6.45;;;2.30;47.80;;;;;;5055694;28;20026;-75
2022/03/01 06:37:57;;;;;;;18.30;6.75;;;2.40;47.80;;;;;;5055759;28;20112;-74
2022/03/01 06:40:23;;;;;;;17.98;6.32;;;2.50;47.80;;;;;;5055709;28;20025;-73
2022/03/01 06:42:49;;;;;;;24.15;7.28;;;2.50;47.70;;;;;;5055710;28;20025;-73
2022/03/01 06:45:16;;;;;;;19.45;6.85;;;2.60;47.70;;;;;;5055534;28;20025;-73
2022/03/01 06:47:42;;;;;;;14.95;7.25;;;2.70;47.60;;;;;;5055530;28;20432;-74
2022/03/01 06:50:09;;;;;;;15.45;6.82;;;2.80;47.50;;;;;;5055477;28;20053;-72
2022/03/01 06:52:35;;;;;;;19.55;7.57;;;2.90;47.50;;;;;;5055494;28;20029;-76
2022/03/01 06:55:06;;;;;;;15.45;6.28;;;3.00;47.40;;;;;;5055480;28;20025;-74
2022/03/01 06:57:33;;;;;;;15.00;6.43;;;3.00;47.30;;;;;;5055240;28;20511;-72
2022/03/01 06:59:59;;;;;;;9.52;5.10;;;3.10;47.10;;;;;;5055313;28;20107;-76
2022/03/01 07:02:26;;;;;;;14.00;6.68;;;3.20;46.90;;;;;;5055041;28;20024;-71
2022/03/01 07:04:54;;;;;;;13.18;6.32;;;3.30;46.90;;;;;;5055116;28;20117;-72
2022/03/01 07:07:21;;;;;;;15.05;6.22;;;3.40;46.80;;;;;;5053807;28;20028;-73
2022/03/01 07:09:47;;;;;;;11.60;5.55;;;3.50;46.60;;;;;;5055187;28;20386;-76
2022/03/01 07:12:13;;;;;;;15.35;6.40;;;3.60;46.40;;;;;;5055076;28;20017;-77
2022/03/01 07:14:39;;;;;;;12.32;6.28;;;3.70;46.30;;;;;;5055171;28;20025;-76
2022/03/01 07:17:05;;;;;;;14.88;6.15;;;3.70;46.00;;;;;;5055009;28;20466;-74
2022/03/01 07:19:31;;;;;;;14.23;6.32;;;3.80;45.90;;;;;;5054932;28;20059;-73
2022/03/01 07:21:56;;;;;;;13.20;5.82;;;3.90;45.70;;;;;;5054870;28;20078;-74
2022/03/01 07:24:22;;;;;;;13.85;6.28;;;4.00;45.70;;;;;;5054826;28;20025;-76
2022/03/01 07:26:49;;;;;;;16.35;6.90;;;4.00;45.50;;;;;;5054894;28;20426;-74
2022/03/01 07:29:15;;;;;;;15.25;6.30;;;4.10;45.40;;;;;;5054757;28;20017;-73
2022/03/01 07:31:41;;;;;;;14.18;6.63;;;4.20;45.40;;;;;;5054675;28;20029;-73
2022/03/01 07:34:08;;;;;;;12.55;6.43;;;4.20;45.20;;;;;;5053372;28;20078;-75
2022/03/01 07:36:34;;;;;;;12.55;6.80;;;4.30;45.30;;;;;;5053476;28;20025;-73
2022/03/01 07:38:59;;;;;;;18.45;6.88;;;4.30;45.10;;;;;;5054700;28;20021;-72
2022/03/01 07:41:25;;;;;;;16.63;6.50;;;4.40;45.00;;;;;;5054678;28;20025;-76
2022/03/01 07:43:51;;;;;;;14.93;6.40;;;4.50;45.00;;;;;;5054578;28;20082;-74
2022/03/01 07:46:17;;;;;;;15.63;6.93;;;4.50;44.90;;;;;;5053299;28;20021;-75
2022/03/01 07:48:43;;;;;;;14.70;7.10;;;4.60;44.90;;;;;;5054512;28;20025;-74
2022/03/01 07:51:10;;;;;;;13.55;6.65;;;4.70;44.80;;;;;;5054416;28;20021;-75
2022/03/01 07:53:36;;;;;;;16.30;7.35;;;4.70;44.60;;;;;;5054437;28;20021;-73
2022/03/01 07:56:02;;;;;;;20.63;7.40;;;4.80;44.50;;;;;;5054396;28;20378;-70
2022/03/01 07:58:28;;;;;;;17.52;7.47;;;4.80;44.30;;;;;;5052825;28;20401;-72
2022/03/01 08:00:54;;;;;;;13.23;6.72;;;4.90;44.30;;;;;;5054103;28;20045;-72
2022/03/01 08:03:20;;;;;;;12.82;6.95;;;4.90;44.20;;;;;;5052883;28;20031;-74
2022/03/01 08:05:46;;;;;;;13.88;6.95;;;5.00;44.10;;;;;;5054124;28;20021;-71
2022/03/01 08:08:13;;;;;;;14.20;7.82;;;5.10;44.70;;;;;;5052768;28;20415;-72
2022/03/01 08:10:40;;;;;;;15.48;7.00;;;5.10;43.90;;;;;;5054062;28;20429;-74
2022/03/01 08:13:06;;;;;;;15.40;8.00;;;5.20;43.90;;;;;;5053844;28;20021;-71
2022/03/01 08:15:32;;;;;;;13.13;6.70;;;5.20;43.90;;;;;;5053899;28;20083;-75
2022/03/01 08:17:58;;;;;;;18.15;7.38;;;5.30;43.80;;;;;;5053948;28;20028;-74
2022/03/01 08:20:25;;;;;;;13.15;7.07;;;5.30;43.50;;;;;;5053862;28;20479;-72
2022/03/01 08:22:52;;;;;;;16.30;7.00;;;5.40;43.50;;;;;;5052514;28;20025;-72
2022/03/01 08:25:18;;;;;;;12.55;6.75;;;5.50;43.50;;;;;;5053767;28;20360;-73
2022/03/01 08:27:44;;;;;;;15.50;8.40;;;5.50;43.40;;;;;;5053628;28;20021;-73
2022/03/01 08:30:11;;;;;;;16.33;7.13;;;5.60;43.20;;;;;;5053682;28;20462;-71
2022/03/01 08:32:37;;;;;;;12.05;6.68;;;5.60;43.00;;;;;;5053521;28;20059;-72
2022/03/01 08:35:04;;;;;;;20.98;8.43;;;5.70;43.00;;;;;;5052378;28;20056;-74
2022/03/01 08:37:30;;;;;;;15.10;7.82;;;5.70;43.00;;;;;;5053507;28;20099;-73
2022/03/01 08:39:56;;;;;;;15.32;8.65;;;5.80;43.10;;;;;;5053002;28;20478;-71
2022/03/01 08:42:22;;;;;;;25.77;10.63;;;5.80;43.10;;;;;;5053648;28;20370;-72
2022/03/01 08:44:47;;;;;;;18.35;9.55;;;5.90;43.00;;;;;;5053527;28;20021;-71
2022/03/01 08:47:13;;;;;;;16.55;9.05;;;5.90;43.00;;;;;;5053525;28;20421;-75
2022/03/01 08:49:39;;;;;;;18.10;9.68;;;6.00;43.00;;;;;;5053360;28;20536;-71
2022/03/01 08:52:05;;;;;;;22.98;10.57;;;6.00;42.90;;;;;;5053704;28;20021;-72
2022/03/01 08:54:31;;;;;;;20.05;10.65;;;6.10;42.80;;;;;;5053143;28;20050;-73
2022/03/01 08:56:57;;;;;;;16.45;9.00;;;6.10;42.80;;;;;;5052926;28;20084;-74
2022/03/01 08:59:24;;;;;;;23.05;9.23;;;6.20;42.70;;;;;;5053002;28;20052;-73
2022/03/01 09:01:50;;;;;;;23.15;11.73;;;6.20;42.60;;;;;;5053041;28;20533;-73
2022/03/01 09:04:16;;;;;;;15.80;8.50;;;6.30;42.50;;;;;;5052997;28;20048;-71
2022/03/01 09:06:41;;;;;;;19.15;9.88;;;6.30;42.30;;;;;;5051569;28;20025;-74
2022/03/01 09:09:07;;;;;;;17.33;9.95;;;6.40;42.40;;;;;;5052957;28;20021;-71
2022/03/01 09:11:33;;;;;;;19.27;10.98;;;6.40;42.40;;;;;;5052847;28;20040;-73
2022/03/01 09:13:59;;;;;;;22.23;11.65;;;6.40;42.30;;;;;;5052847;28;20479;-72
2022/03/01 09:16:25;;;;;;;21.13;11.55;;;6.50;42.20;;;;;;5052851;28;20032;-74
2022/03/01 09:18:51;;;;;;;22.65;11.77;;;6.50;42.10;;;;;;5051614;28;20025;-73
2022/03/01 09:21:16;;;;;;;21.35;11.38;;;6.60;42.10;;;;;;5052645;28;20537;-74
2022/03/01 09:23:43;;;;;;;22.17;10.85;;;6.60;42.20;;;;;;5052733;28;20021;-73
2022/03/01 09:26:09;;;;;;;18.40;9.95;;;6.60;42.20;;;;;;5052748;28;20420;-72
2022/03/01 09:28:35;;;;;;;23.40;11.07;;;6.70;42.10;;;;;;5052733;28;20035;-74
2022/03/01 09:31:01;;;;;;;18.00;9.88;;;6.70;42.10;;;;;;5052698;28;20398;-74
2022/03/01 09:33:26;;;;;;;16.27;9.73;;;6.80;42.00;;;;;;5057553;28;20032;-73
2022/03/01 09:35:52;;;;;;;18.95;10.15;;;6.80;41.70;;;;;;5071133;28;20070;-70
2022/03/01 09:38:18;;;;;;;23.27;11.23;;;6.80;41.70;;;;;;5072468;28;20024;-72
2022/03/01 09:40:48;;;;;;;27.17;10.27;;;6.90;41.70;;;;;;5070849;28;20059;-72
2022/03/01 09:43:15;;;;;;;23.63;10.75;;;6.90;41.40;;;;;;5071145;28;20021;-73
2022/03/01 09:45:41;;;;;;;23.33;10.73;;;7.00;41.40;;;;;;5072367;28;20028;-72
2022/03/01 09:48:07;;;;;;;20.52;10.75;;;7.00;41.60;;;;;;5072192;28;20158;-73
2022/03/01 09:50:32;;;;;;;21.33;10.93;;;7.00;41.40;;;;;;5072515;28;20480;-71
2022/03/01 09:53:00;;;;;;;21.38;10.93;;;7.10;41.40;;;;;;5074421;28;20020;-77
2022/03/01 09:55:26;;;;;;;30.08;10.25;;;7.10;41.30;;;;;;5076687;28;20021;-76
2022/03/01 09:57:52;;;;;;;20.80;9.63;;;7.20;41.30;;;;;;5076355;28;20115;-76
2022/03/01 10:00:18;;;;;;;24.00;10.30;;;7.20;41.10;;;;;;5056389;28;20108;-74
2022/03/01 10:02:44;;;;;;;25.45;11.25;;;7.30;41.20;;;;;;5056345;28;20021;-72
2022/03/01 10:05:12;;;;;;;20.90;11.00;;;7.30;41.00;;;;;;5073375;28;20025;-75
2022/03/01 10:07:43;;;;;;;22.95;10.20;;;7.40;40.90;;;;;;5076485;28;20093;-73
2022/03/01 10:10:16;;;;;;;19.25;11.10;;;7.40;40.80;;;;;;5075140;28;20024;-71
2022/03/01 10:12:43;;;;;;;17.60;10.82;;;7.40;40.70;;;;;;5074987;28;20031;-74
2022/03/01 10:15:10;;;;;;;18.65;9.82;;;7.50;40.70;;;;;;5069867;28;20474;-74
2022/03/01 10:17:43;;;;;;;19.60;10.57;;;7.50;40.60;;;;;;5093560;28;20035;-72
2022/03/01 10:20:10;;;;;;;15.60;9.02;;;7.50;40.50;;;;;;5085821;28;20035;-74
2022/03/01 10:22:47;;;;;;;22.00;10.05;;;7.60;40.60;;;;;;5063198;28;20035;-73
2022/03/01 10:25:14;;;;;;;20.00;10.38;;;7.60;40.50;;;;;;5076071;28;20027;-73
2022/03/01 10:27:44;;;;;;;15.82;9.05;;;7.70;40.40;;;;;;5057195;28;20478;-75
2022/03/01 10:30:11;;;;;;;19.38;10.15;;;7.70;40.40;;;;;;5055988;28;20029;-75
2022/03/01 10:32:37;;;;;;;21.38;9.93;;;7.80;40.20;;;;;;5062194;28;20025;-76
2022/03/01 10:35:04;;;;;;;22.02;10.38;;;7.80;40.00;;;;;;5072907;28;20028;-75
2022/03/01 10:37:33;;;;;;;25.92;10.60;;;7.90;39.70;;;;;;5062435;28;20024;-71
2022/03/01 10:40:20;;;;;;;22.98;11.13;;;7.90;39.50;;;;;;5066975;28;20029;-73
2022/03/01 10:43:05;;;;;;;21.30;10.43;;;8.00;39.10;;;;;;5060025;28;20470;-76
2022/03/01 10:45:41;;;;;;;19.85;8.48;;;8.00;39.20;;;;;;5071549;28;20028;-75
2022/03/01 10:48:10;;;;;;;15.50;7.57;;;8.00;38.70;;;;;;5056626;28;20074;-77
2022/03/01 10:50:37;;;;;;;13.90;7.50;;;8.10;38.70;;;;;;5066282;28;20476;-74
2022/03/01 10:53:03;;;;;;;15.23;6.80;;;8.10;38.60;;;;;;5092898;28;20466;-75
2022/03/01 10:55:32;;;;;;;20.83;8.80;;;8.10;38.60;;;;;;5095867;28;20330;-76
2022/03/01 10:58:10;;;;;;;11.73;7.75;;;8.20;38.50;;;;;;5095429;28;20036;-73
2022/03/01 11:00:37;;;;;;;16.60;9.57;;;8.20;38.30;;;;;;5094388;28;20390;-74
2022/03/01 11:03:07;;;;;;;18.55;8.98;;;8.30;38.00;;;;;;5055725;28;20112;-73
2022/03/01 11:05:34;;;;;;;22.75;9.25;;;8.30;37.90;;;;;;5055335;28;20056;-73
2022/03/01 11:08:08;;;;;;;17.13;8.63;;;8.40;37.70;;;;;;5057291;28;20099;-73
2022/03/01 11:10:36;;;;;;;14.02;7.97;;;8.40;37.90;;;;;;5054010;28;20041;-71
2022/03/01 11:13:02;;;;;;;12.68;7.90;;;8.40;37.70;;;;;;5068248;28;20434;-72
2022/03/01 11:15:37;;;;;;;14.60;8.10;;;8.50;37.50;;;;;;5063813;28;20051;-74
2022/03/01 11:18:37;;;;;;;23.90;11.63;;;8.50;37.40;;;;;;5058685;28;20035;-75
2022/03/01 11:21:05;;;;;;;14.65;8.02;;;8.50;36.90;;;;;;5067643;28;20059;-74
2022/03/01 11:23:31;;;;;;;20.80;10.45;;;8.60;37.20;;;;;;5058901;28;20071;-74
2022/03/01 11:26:11;;;;;;;16.48;8.02;;;8.60;37.00;;;;;;5054886;28;20092;-74
2022/03/01 11:28:40;;;;;;;12.70;6.65;;;8.60;36.50;;;;;;5055134;28;20033;-72
2022/03/01 11:31:24;;;;;;;12.88;7.20;;;8.70;36.50;;;;;;5054834;28;20513;-75
2022/03/01 11:34:02;;;;;;;12.77;6.85;;;8.70;36.40;;;;;;5057740;28;20029;-73
2022/03/01 11:36:31;;;;;;;18.60;8.00;;;8.80;36.20;;;;;;5054788;28;20474;-73
2022/03/01 11:39:10;;;;;;;12.88;7.00;;;8.80;35.90;;;;;;5054506;28;20107;-71
2022/03/01 11:41:46;;;;;;;13.27;7.00;;;8.90;35.90;;;;;;5058790;28;20103;-73
2022/03/01 11:44:17;;;;;;;11.93;7.20;;;8.90;35.90;;;;;;5054764;28;20032;-72
2022/03/01 11:46:45;;;;;;;13.90;7.60;;;9.00;35.70;;;;;;5054655;28;20040;-76
2022/03/01 11:49:12;;;;;;;14.73;7.70;;;9.00;36.00;;;;;;5054483;28;20025;-74
2022/03/01 11:51:50;;;;;;;13.30;6.80;;;9.10;35.90;;;;;;5053592;28;20028;-74
2022/03/01 11:54:40;;;;;;;14.90;7.43;;;9.10;35.80;;;;;;5065433;28;20644;-73
2022/03/01 11:57:08;;;;;;;14.80;8.10;;;9.20;35.80;;;;;;5054232;28;20073;-74
2022/03/01 11:59:38;;;;;;;23.10;8.10;;;9.20;35.30;;;;;;5072000;28;20025;-71
2022/03/01 12:02:07;;;;;;;16.80;7.65;;;9.20;35.20;;;;;;5072809;28;20048;-75
2022/03/01 12:04:33;;;;;;;11.98;6.85;;;9.30;35.40;;;;;;5057082;28;20029;-75
2022/03/01 12:07:00;;;;;;;14.75;7.70;;;9.30;35.50;;;;;;5060631;28;20025;-75
2022/03/01 12:09:28;;;;;;;17.15;7.25;;;9.40;35.30;;;;;;5058365;28;20025;-75
2022/03/01 12:12:08;;;;;;;14.77;7.25;;;9.40;35.00;;;;;;5066250;28;20029;-76
2022/03/01 12:14:35;;;;;;;14.85;7.53;;;9.50;34.90;;;;;;5068955;28;20078;-77
2022/03/01 12:17:02;;;;;;;14.68;8.13;;;9.50;34.90;;;;;;5061656;28;20485;-76
2022/03/01 12:19:33;;;;;;;15.75;8.75;;;9.50;34.80;;;;;;5067073;28;20029;-75
2022/03/01 12:22:02;;;;;;;15.35;8.15;;;9.60;34.70;;;;;;5071370;28;20055;-72
2022/03/01 12:24:30;;;;;;;14.60;7.88;;;9.60;34.70;;;;;;5053778;28;20083;-73
2022/03/01 12:26:58;;;;;;;14.05;7.63;;;9.70;34.90;;;;;;5053677;28;20017;-76
2022/03/01 12:29:26;;;;;;;16.63;8.00;;;9.70;34.40;;;;;;5065505;28;20036;-76
2022/03/01 12:32:10;;;;;;;10.93;6.63;;;9.70;34.60;;;;;;5073343;28;20133;-75
2022/03/01 12:34:38;;;;;;;19.80;8.50;;;9.80;34.60;;;;;;5073125;28;20497;-74
2022/03/01 12:37:06;;;;;;;17.33;8.88;;;9.80;34.40;;;;;;5072188;28;20452;-75
2022/03/01 12:39:33;;;;;;;17.42;8.38;;;9.80;34.10;;;;;;5073440;28;20021;-75
2022/03/01 12:42:00;;;;;;;17.85;9.15;;;9.90;34.10;;;;;;5073218;28;20031;-73
2022/03/01 12:44:28;;;;;;;17.27;8.68;;;9.90;34.20;;;;;;5073415;28;20024;-77